Time;durP1;ratioP1;P1;durP2;ratioP2;P2;SDS_P1;SDS_P2;PMS_P1;PMS_P2;Temp;Humidity;BMP_temperature;BMP_pressure;BME280_temperature;BME280_humidity;BME280_pressure;Samples;Min_cycle;Max_cycle;Signal;HPM_P1;HPM_P2
2023/03/28 00:02:10;;;;;;;6.85;1.85;;;;;;;;;;5045409;28;20402;-59
2023/03/28 00:04:36;;;;;;;7.97;2.20;;;;;;;;;;5049545;28;20044;-61
2023/03/28 00:07:02;;;;;;;7.88;1.90;;;;;;;;;;5033152;28;20100;-61
2023/03/28 00:09:28;;;;;;;7.53;1.98;;;;;;;;;;5032865;28;20096;-60
2023/03/28 00:11:54;;;;;;;8.80;2.08;;;;;;;;;;5031290;28;20038;-61
2023/03/28 00:14:19;;;;;;;5.00;1.88;;;;;;;;;;5027299;28;20059;-61
2023/03/28 00:16:44;;;;;;;10.57;2.17;;;;;;;;;;5021908;28;20037;-61
2023/03/28 00:19:14;;;;;;;7.25;2.05;;;;;;;;;;5031850;28;20034;-60
2023/03/28 00:21:45;;;;;;;8.57;1.92;;;;;;;;;;5013857;28;20030;-60
2023/03/28 00:24:12;;;;;;;;;;;;;;;;;;5012697;28;20038;-60
2023/03/28 00:26:38;;;;;;;6.47;1.73;;;;;;;;;;5044284;28;19913;-60
2023/03/28 00:29:05;;;;;;;5.38;2.03;;;;;;;;;;5041061;28;20035;-60
2023/03/28 00:31:33;;;;;;;9.77;2.10;;;;;;;;;;5036476;28;20053;-60
2023/03/28 00:33:59;;;;;;;5.50;1.73;;;;;;;;;;5027832;28;20041;-60
2023/03/28 00:36:28;;;;;;;8.07;1.95;;;;;;;;;;5020198;28;20116;-60
2023/03/28 00:38:56;;;;;;;9.50;2.60;;;;;;;;;;5029507;28;20040;-60
2023/03/28 00:41:23;;;;;;;6.95;2.15;;;;;;;;;;5029813;28;20030;-60
2023/03/28 00:43:52;;;;;;;5.70;2.00;;;;;;;;;;5017194;28;20049;-61
2023/03/28 00:46:38;;;;;;;8.30;2.00;;;;;;;;;;5030860;28;20032;-60
2023/03/28 00:49:14;;;;;;;11.98;2.10;;;;;;;;;;5030297;28;20533;-62
2023/03/28 00:51:49;;;;;;;8.43;1.95;;;;;;;;;;5030417;28;20045;-60
2023/03/28 00:54:18;;;;;;;10.30;2.03;;;;;;;;;;5031313;28;20421;-60
2023/03/28 00:56:49;;;;;;;9.18;2.00;;;;;;;;;;5026782;28;20037;-61
2023/03/28 00:59:19;;;;;;;8.48;1.98;;;;;;;;;;5029198;28;20141;-61
2023/03/28 01:01:45;;;;;;;4.88;1.70;;;;;;;;;;5018668;28;20113;-61
2023/03/28 01:04:11;;;;;;;9.55;1.92;;;;;;;;;;5030133;28;20057;-60
2023/03/28 01:06:45;;;;;;;8.52;2.38;;;;;;;;;;5033668;28;20045;-60
2023/03/28 01:09:12;;;;;;;8.35;1.90;;;;;;;;;;5030254;28;20105;-61
2023/03/28 01:11:40;;;;;;;7.38;2.05;;;;;;;;;;5028796;28;20037;-60
2023/03/28 01:14:08;;;;;;;9.55;2.28;;;;;;;;;;5029085;28;20445;-61
2023/03/28 01:16:40;;;;;;;4.85;2.10;;;;;;;;;;5019615;28;20061;-60
2023/03/28 01:19:11;;;;;;;7.28;2.05;;;;;;;;;;5028256;28;20026;-60
2023/03/28 01:21:59;;;;;;;6.32;1.98;;;;;;;;;;5028463;28;20034;-60
2023/03/28 01:24:56;;;;;;;7.05;2.10;;;;;;;;;;5042380;28;20025;-60
2023/03/28 01:27:43;;;;;;;9.05;1.80;;;;;;;;;;5011398;28;20482;-60
2023/03/28 01:30:17;;;;;;;7.20;1.90;;;;;;;;;;5029375;28;20041;-59
2023/03/28 01:33:09;;;;;;;6.80;1.63;;;;;;;;;;5029753;28;20069;-59
2023/03/28 01:35:58;;;;;;;6.95;2.08;;;;;;;;;;5015336;28;20041;-59
2023/03/28 01:38:51;;;;;;;5.38;1.80;;;;;;;;;;5027780;28;20116;-60
2023/03/28 01:41:42;;;;;;;11.77;2.42;;;;;;;;;;5041484;28;20049;-60
2023/03/28 01:44:18;;;;;;;5.53;2.10;;;;;;;;;;5038365;28;20482;-60
2023/03/28 01:46:51;;;;;;;8.98;2.13;;;;;;;;;;5027286;28;20349;-59
2023/03/28 01:49:38;;;;;;;7.30;2.03;;;;;;;;;;5036866;28;20392;-59
2023/03/28 01:52:35;;;;;;;8.43;2.40;;;;;;;;;;5035988;28;20846;-59
2023/03/28 01:55:16;;;;;;;5.70;2.08;;;;;;;;;;5024730;28;20088;-59
2023/03/28 01:57:56;;;;;;;8.70;2.20;;;;;;;;;;5011413;28;20046;-59
2023/03/28 02:00:31;;;;;;;9.68;2.20;;;;;;;;;;5029073;28;20033;-61
2023/03/28 02:03:10;;;;;;;9.10;2.42;;;;;;;;;;5025123;28;20038;-60
2023/03/28 02:05:38;;;;;;;9.43;2.10;;;;;;;;;;5017021;28;20204;-60
2023/03/28 02:08:07;;;;;;;8.43;2.33;;;;;;;;;;5037853;28;20036;-60
2023/03/28 02:10:35;;;;;;;7.18;2.15;;;;;;;;;;5030605;28;20025;-60
2023/03/28 02:13:09;;;;;;;8.38;2.33;;;;;;;;;;5037908;28;20111;-61
2023/03/28 02:15:34;;;;;;;8.93;2.30;;;;;;;;;;5025032;28;20036;-60
2023/03/28 02:18:05;;;;;;;8.18;2.30;;;;;;;;;;5039116;28;20026;-60
2023/03/28 02:20:34;;;;;;;6.93;1.88;;;;;;;;;;5021684;28;20132;-61
2023/03/28 02:23:01;;;;;;;6.57;2.30;;;;;;;;;;5016023;28;20053;-61
2023/03/28 02:25:26;;;;;;;8.75;1.98;;;;;;;;;;5031568;28;20092;-61
2023/03/28 02:27:56;;;;;;;7.40;2.45;;;;;;;;;;5044064;28;20429;-61
2023/03/28 02:30:22;;;;;;;7.57;2.70;;;;;;;;;;5033357;28;20041;-60
2023/03/28 02:32:51;;;;;;;9.30;2.45;;;;;;;;;;5032338;28;20038;-61
2023/03/28 02:35:25;;;;;;;8.30;2.45;;;;;;;;;;5034720;28;20052;-61
2023/03/28 02:38:05;;;;;;;8.18;2.63;;;;;;;;;;5044155;28;20053;-61
2023/03/28 02:40:34;;;;;;;9.30;2.88;;;;;;;;;;5030569;28;20044;-60
2023/03/28 02:43:31;;;;;;;7.13;2.53;;;;;;;;;;5014479;28;20045;-61
2023/03/28 02:46:18;;;;;;;6.00;2.63;;;;;;;;;;5028887;28;20043;-60
2023/03/28 02:49:09;;;;;;;9.10;3.03;;;;;;;;;;5031244;28;20029;-60
2023/03/28 02:51:45;;;;;;;6.80;2.78;;;;;;;;;;5031602;28;20041;-60
2023/03/28 02:54:16;;;;;;;10.68;3.25;;;;;;;;;;5030771;28;20132;-60
2023/03/28 02:57:00;;;;;;;12.10;2.90;;;;;;;;;;5038511;28;20481;-60
2023/03/28 02:59:34;;;;;;;10.02;3.25;;;;;;;;;;5035048;28;20026;-60
2023/03/28 03:02:01;;;;;;;8.00;3.33;;;;;;;;;;5032343;28;20057;-60
2023/03/28 03:04:27;;;;;;;10.32;3.55;;;;;;;;;;5033470;28;20033;-60
2023/03/28 03:06:53;;;;;;;11.57;3.33;;;;;;;;;;5028111;28;20045;-61
2023/03/28 03:09:18;;;;;;;13.07;3.55;;;;;;;;;;5039432;28;20045;-60
2023/03/28 03:11:44;;;;;;;11.95;3.72;;;;;;;;;;5028025;28;20072;-60
2023/03/28 03:14:10;;;;;;;9.38;3.90;;;;;;;;;;5037976;28;20112;-61
2023/03/28 03:16:37;;;;;;;8.77;3.88;;;;;;;;;;5026412;28;20448;-60
2023/03/28 03:19:03;;;;;;;14.50;3.92;;;;;;;;;;5037836;28;20045;-61
2023/03/28 03:21:28;;;;;;;11.85;4.05;;;;;;;;;;5035388;28;20029;-59
2023/03/28 03:23:54;;;;;;;9.05;4.05;;;;;;;;;;5029572;28;20104;-60
2023/03/28 03:26:19;;;;;;;11.63;4.15;;;;;;;;;;5034618;28;20051;-60
2023/03/28 03:28:45;;;;;;;13.68;4.35;;;;;;;;;;5020537;28;20066;-60
2023/03/28 03:31:10;;;;;;;12.75;4.35;;;;;;;;;;5024221;28;20025;-61
2023/03/28 03:33:40;;;;;;;14.77;4.35;;;;;;;;;;5031921;28;20037;-61
2023/03/28 03:36:08;;;;;;;12.32;4.32;;;;;;;;;;5017526;28;20030;-61
2023/03/28 03:38:34;;;;;;;13.88;4.38;;;;;;;;;;5027146;28;20032;-61
2023/03/28 03:41:00;;;;;;;9.15;3.95;;;;;;;;;;5016457;28;20029;-60
2023/03/28 03:43:26;;;;;;;13.27;4.55;;;;;;;;;;5042023;28;20443;-60
2023/03/28 03:45:52;;;;;;;10.40;4.35;;;;;;;;;;5034854;28;20378;-61
2023/03/28 03:48:17;;;;;;;18.27;5.05;;;;;;;;;;5044584;28;20032;-60
2023/03/28 03:50:43;;;;;;;10.55;4.65;;;;;;;;;;5022372;28;20386;-60
2023/03/28 03:53:08;;;;;;;12.18;5.00;;;;;;;;;;5012769;28;20083;-60
2023/03/28 03:55:38;;;;;;;13.90;5.10;;;;;;;;;;5021480;28;20061;-60
2023/03/28 03:58:03;;;;;;;13.93;5.45;;;;;;;;;;5026737;28;20038;-60
2023/03/28 04:00:28;;;;;;;14.65;5.25;;;;;;;;;;5017239;28;20037;-59
2023/03/28 04:02:54;;;;;;;13.30;5.00;;;;;;;;;;5039004;28;20037;-60
2023/03/28 04:05:19;;;;;;;13.88;5.30;;;;;;;;;;5030611;28;20054;-60
2023/03/28 04:07:45;;;;;;;14.65;5.72;;;;;;;;;;5026723;28;20104;-60
2023/03/28 04:10:10;;;;;;;21.00;6.00;;;;;;;;;;5023826;28;20031;-61
2023/03/28 04:12:36;;;;;;;13.02;5.35;;;;;;;;;;5039587;28;20051;-60
2023/03/28 04:15:01;;;;;;;15.25;5.57;;;;;;;;;;5024633;28;20454;-60
2023/03/28 04:17:28;;;;;;;15.05;5.43;;;;;;;;;;5026082;28;20073;-59
2023/03/28 04:19:55;;;;;;;15.38;5.82;;;;;;;;;;5014440;28;20030;-60
2023/03/28 04:22:21;;;;;;;13.23;5.47;;;;;;;;;;5042545;28;20073;-60
2023/03/28 04:24:48;;;;;;;11.00;5.30;;;;;;;;;;5018711;28;20041;-60
2023/03/28 04:27:14;;;;;;;10.73;5.45;;;;;;;;;;5021186;28;20037;-60
2023/03/28 04:29:40;;;;;;;18.30;5.93;;;;;;;;;;5025949;28;20033;-60
2023/03/28 04:32:06;;;;;;;21.88;7.03;;;;;;;;;;5032732;28;20029;-59
2023/03/28 04:34:32;;;;;;;17.05;7.30;;;;;;;;;;5035578;28;20045;-62
2023/03/28 04:37:03;;;;;;;15.35;7.07;;;;;;;;;;5039083;28;20029;-61
2023/03/28 04:39:30;;;;;;;;;;;;;;;;;;5050123;28;20051;-61
2023/03/28 04:41:55;;;;;;;15.07;6.05;;;;;;;;;;5031070;28;19912;-63
2023/03/28 04:44:22;;;;;;;14.55;6.25;;;;;;;;;;5019634;28;20037;-63
2023/03/28 04:46:49;;;;;;;18.35;7.80;;;;;;;;;;5013697;28;20360;-61
2023/03/28 04:49:15;;;;;;;17.70;6.78;;;;;;;;;;5032209;28;20155;-61
2023/03/28 04:51:40;;;;;;;19.02;7.20;;;;;;;;;;5042621;28;20494;-62
2023/03/28 04:54:06;;;;;;;25.40;7.22;;;;;;;;;;5017702;28;20026;-62
2023/03/28 04:56:32;;;;;;;18.52;6.93;;;;;;;;;;5013752;28;20148;-63
2023/03/28 04:58:57;;;;;;;18.40;6.95;;;;;;;;;;5012130;28;20057;-63
2023/03/28 05:01:24;;;;;;;21.35;7.43;;;;;;;;;;5012514;28;20022;-62
2023/03/28 05:03:50;;;;;;;22.00;8.20;;;;;;;;;;5023390;28;20060;-63
2023/03/28 05:06:16;;;;;;;16.52;7.50;;;;;;;;;;5031373;28;20080;-62
2023/03/28 05:08:42;;;;;;;21.75;7.68;;;;;;;;;;5031879;28;20424;-62
2023/03/28 05:11:08;;;;;;;17.02;7.30;;;;;;;;;;5029651;28;20133;-63
2023/03/28 05:13:34;;;;;;;30.27;7.93;;;;;;;;;;5031163;28;20029;-63
2023/03/28 05:16:00;;;;;;;18.52;7.57;;;;;;;;;;5031045;28;20441;-63
2023/03/28 05:18:25;;;;;;;21.52;7.68;;;;;;;;;;5032465;28;20447;-62
2023/03/28 05:20:50;;;;;;;19.17;7.38;;;;;;;;;;5032292;28;20134;-62
2023/03/28 05:23:16;;;;;;;22.67;7.57;;;;;;;;;;5029849;28;20037;-62
2023/03/28 05:25:42;;;;;;;14.32;6.72;;;;;;;;;;5030585;28;20367;-63
2023/03/28 05:28:07;;;;;;;17.38;7.40;;;;;;;;;;5029785;28;20087;-63
2023/03/28 05:30:33;;;;;;;17.73;6.95;;;;;;;;;;5031893;28;20072;-66
2023/03/28 05:32:59;;;;;;;20.83;7.28;;;;;;;;;;5026114;28;20484;-62
2023/03/28 05:35:25;;;;;;;19.83;7.97;;;;;;;;;;5011785;28;20034;-61
2023/03/28 05:37:50;;;;;;;18.60;7.07;;;;;;;;;;5033196;28;20055;-63
2023/03/28 05:40:16;;;;;;;24.15;7.40;;;;;;;;;;5050521;28;20041;-64
2023/03/28 05:42:42;;;;;;;17.27;7.25;;;;;;;;;;5037628;28;20382;-64
2023/03/28 05:45:10;;;;;;;13.70;7.03;;;;;;;;;;5027439;28;20028;-64
2023/03/28 05:47:35;;;;;;;19.10;7.03;;;;;;;;;;5035611;28;20037;-65
2023/03/28 05:50:02;;;;;;;18.80;7.05;;;;;;;;;;5026382;28;20462;-64
2023/03/28 05:52:27;;;;;;;17.15;7.13;;;;;;;;;;5026184;28;20033;-64
2023/03/28 05:54:55;;;;;;;16.63;6.57;;;;;;;;;;5040084;28;20083;-63
2023/03/28 05:57:21;;;;;;;13.18;6.82;;;;;;;;;;5045010;28;20281;-63
2023/03/28 05:59:47;;;;;;;17.02;6.70;;;;;;;;;;5034774;28;20029;-63
2023/03/28 06:02:15;;;;;;;15.32;7.53;;;;;;;;;;5040834;28;20029;-63
2023/03/28 06:04:41;;;;;;;18.65;7.80;;;;;;;;;;5049637;28;20065;-63
2023/03/28 06:07:07;;;;;;;20.05;8.48;;;;;;;;;;5033896;28;20088;-64
2023/03/28 06:09:33;;;;;;;18.25;8.20;;;;;;;;;;5034755;28;20037;-63
2023/03/28 06:11:59;;;;;;;17.42;7.95;;;;;;;;;;5034624;28;20064;-63
2023/03/28 06:14:25;;;;;;;18.08;7.75;;;;;;;;;;5034171;28;20061;-62
2023/03/28 06:16:50;;;;;;;14.23;7.25;;;;;;;;;;5035011;28;20025;-62
2023/03/28 06:19:16;;;;;;;22.92;8.10;;;;;;;;;;5038061;28;20085;-64
2023/03/28 06:21:41;;;;;;;19.17;8.00;;;;;;;;;;5017772;28;20034;-64
2023/03/28 06:24:09;;;;;;;17.00;8.23;;;;;;;;;;5047705;28;20086;-63
2023/03/28 06:26:34;;;;;;;19.25;8.68;;;;;;;;;;5053150;28;20037;-63
2023/03/28 06:28:59;;;;;;;21.92;8.20;;;;;;;;;;5019703;28;20045;-65
2023/03/28 06:31:25;;;;;;;18.60;8.40;;;;;;;;;;5014830;28;20144;-64
2023/03/28 06:33:50;;;;;;;19.98;8.60;;;;;;;;;;5028717;28;20030;-65
2023/03/28 06:36:16;;;;;;;21.10;8.70;;;;;;;;;;5045290;28;20485;-64
2023/03/28 06:38:41;;;;;;;21.65;9.50;;;;;;;;;;5022167;28;20103;-63
2023/03/28 06:41:07;;;;;;;26.73;10.75;;;;;;;;;;5014247;28;20026;-63
2023/03/28 06:43:32;;;;;;;26.40;9.95;;;;;;;;;;5025457;28;20117;-63
2023/03/28 06:45:57;;;;;;;21.40;9.65;;;;;;;;;;5024045;28;20336;-63
2023/03/28 06:48:29;;;;;;;21.77;8.98;;;;;;;;;;5019648;28;20034;-65
2023/03/28 06:50:55;;;;;;;23.63;9.70;;;;;;;;;;5015440;28;20040;-63
2023/03/28 06:53:20;;;;;;;20.38;9.02;;;;;;;;;;5023112;28;20029;-64
2023/03/28 06:55:48;;;;;;;24.15;8.82;;;;;;;;;;5013609;28;20489;-64
2023/03/28 06:58:14;;;;;;;19.80;8.68;;;;;;;;;;5026474;28;20083;-65
2023/03/28 07:00:40;;;;;;;14.23;6.38;;;;;;;;;;5031712;28;20409;-65
2023/03/28 07:03:05;;;;;;;12.75;6.15;;;;;;;;;;5035303;28;20466;-65
2023/03/28 07:05:30;;;;;;;20.83;8.20;;;;;;;;;;5053825;28;20067;-63
2023/03/28 07:07:56;;;;;;;15.38;7.80;;;;;;;;;;5034495;28;20057;-63
2023/03/28 07:10:21;;;;;;;19.80;8.20;;;;;;;;;;5022087;28;20025;-65
2023/03/28 07:12:47;;;;;;;19.73;8.75;;;;;;;;;;5033539;28;20160;-62
2023/03/28 07:15:12;;;;;;;21.73;7.88;;;;;;;;;;5033353;28;20045;-63
2023/03/28 07:17:38;;;;;;;14.23;7.88;;;;;;;;;;5027734;28;20053;-64
2023/03/28 07:20:04;;;;;;;22.63;8.60;;;;;;;;;;5013704;28;20026;-63
2023/03/28 07:22:30;;;;;;;17.52;8.77;;;;;;;;;;5022123;28;20111;-64
2023/03/28 07:24:55;;;;;;;20.40;7.65;;;;;;;;;;5053672;28;20029;-63
2023/03/28 07:27:21;;;;;;;16.27;7.50;;;;;;;;;;5044760;28;20065;-63
2023/03/28 07:29:46;;;;;;;21.23;7.93;;;;;;;;;;5020931;28;20042;-63
2023/03/28 07:32:12;;;;;;;16.55;7.38;;;;;;;;;;5042233;28;20071;-62
2023/03/28 07:34:38;;;;;;;16.65;6.82;;;;;;;;;;5028828;28;20050;-62
2023/03/28 07:37:04;;;;;;;15.82;6.55;;;;;;;;;;5022534;28;20029;-64
2023/03/28 07:39:29;;;;;;;16.40;6.80;;;;;;;;;;5032175;28;20095;-63
2023/03/28 07:41:55;;;;;;;18.02;7.43;;;;;;;;;;5018421;28;20086;-63
2023/03/28 07:44:20;;;;;;;13.77;7.70;;;;;;;;;;5031903;28;20150;-65
2023/03/28 07:46:45;;;;;;;13.77;5.32;;;;;;;;;;5043713;28;20048;-63
2023/03/28 07:49:11;;;;;;;20.60;6.18;;;;;;;;;;5023373;28;20116;-62
2023/03/28 07:51:37;;;;;;;18.25;7.38;;;;;;;;;;5021762;28;20034;-64
2023/03/28 07:54:03;;;;;;;18.75;7.05;;;;;;;;;;5029182;28;20083;-62
2023/03/28 07:56:29;;;;;;;19.88;7.30;;;;;;;;;;5032554;28;20037;-64
2023/03/28 07:58:55;;;;;;;16.42;6.50;;;;;;;;;;5031553;28;20083;-64
2023/03/28 08:01:21;;;;;;;17.38;6.28;;;;;;;;;;5041083;28;20029;-63
2023/03/28 08:03:47;;;;;;;17.45;6.82;;;;;;;;;;5038196;28;20041;-64
2023/03/28 08:06:12;;;;;;;13.52;6.03;;;;;;;;;;5022149;28;20042;-64
2023/03/28 08:08:38;;;;;;;14.10;6.22;;;;;;;;;;5024079;28;20030;-64
2023/03/28 08:11:04;;;;;;;16.85;5.75;;;;;;;;;;5024038;28;20084;-64
2023/03/28 09:53:34;;;;;;;12.95;1.70;;;;;;;;;;5124830;27;20212;-59
2023/03/28 09:56:25;;;;;;;8.77;2.15;;;;;;;;;;5118509;28;20040;-61
2023/03/28 09:58:58;;;;;;;7.38;2.35;;;;;;;;;;5110523;28;20040;-58
2023/03/28 10:01:39;;;;;;;4.10;1.65;;;;;;;;;;5127552;28;20043;-62
2023/03/28 10:04:14;;;;;;;6.28;1.80;;;;;;;;;;5120947;28;20181;-61
2023/03/28 10:06:41;;;;;;;9.93;2.05;;;;;;;;;;5118543;28;20115;-60
2023/03/28 10:09:17;;;;;;;4.60;1.90;;;;;;;;;;5102648;28;20481;-62
2023/03/28 10:11:46;;;;;;;6.55;2.13;;;;;;;;;;5129162;28;20371;-61
2023/03/28 10:14:45;;;;;;;9.57;2.33;;;;;;;;;;5127249;28;20456;-62
2023/03/28 10:17:16;;;;;;;8.73;2.30;;;;;;;;;;5114203;28;20471;-62
2023/03/28 10:19:45;;;;;;;8.25;2.00;;;;;;;;;;5111555;28;20027;-61
2023/03/28 10:22:23;;;;;;;6.97;1.98;;;;;;;;;;5111103;28;20067;-61
2023/03/28 10:24:49;;;;;;;3.72;1.40;;;;;;;;;;5110633;28;20491;-61
2023/03/28 10:27:24;;;;;;;5.32;1.88;;;;;;;;;;5120261;28;20502;-61
2023/03/28 10:29:52;;;;;;;5.72;1.75;;;;;;;;;;5124434;28;20074;-61
2023/03/28 10:32:29;;;;;;;5.72;1.83;;;;;;;;;;5109036;28;20032;-61
2023/03/28 10:35:22;;;;;;;6.57;2.08;;;;;;;;;;5113150;28;20110;-61
2023/03/28 10:37:48;;;;;;;3.90;1.95;;;;;;;;;;5127641;28;20027;-61
2023/03/28 10:40:17;;;;;;;6.63;1.98;;;;;;;;;;5122994;28;20363;-61
2023/03/28 10:42:44;;;;;;;4.78;1.98;;;;;;;;;;5122302;28;20111;-62
2023/03/28 10:45:19;;;;;;;4.10;1.92;;;;;;;;;;5107596;28;20034;-61
2023/03/28 10:47:48;;;;;;;9.55;2.00;;;;;;;;;;5111562;28;20019;-61
2023/03/28 10:50:24;;;;;;;7.22;2.10;;;;;;;;;;5111802;28;20035;-61
2023/03/28 10:52:58;;;;;;;6.72;1.95;;;;;;;;;;5123723;28;20161;-60
2023/03/28 10:55:30;;;;;;;5.72;2.00;;;;;;;;;;5114235;27;20210;-62
2023/03/28 10:58:03;;;;;;;6.55;1.95;;;;;;;;;;5116038;28;20390;-61
2023/03/28 11:00:41;;;;;;;5.57;1.98;;;;;;;;;;5125152;27;20038;-61
2023/03/28 11:03:38;;;;;;;6.72;2.10;;;;;;;;;;5104218;28;20488;-61
2023/03/28 11:06:25;;;;;;;5.30;2.20;;;;;;;;;;5094519;28;20392;-59
2023/03/28 11:08:50;;;;;;;7.00;2.20;;;;;;;;;;5103278;28;20036;-60
2023/03/28 11:11:40;;;;;;;7.22;2.17;;;;;;;;;;5093571;28;20093;-61
2023/03/28 11:14:33;;;;;;;4.65;1.80;;;;;;;;;;5108821;28;20039;-62
2023/03/28 11:16:58;;;;;;;5.47;1.90;;;;;;;;;;5100007;28;20143;-61
2023/03/28 11:19:45;;;;;;;6.82;2.10;;;;;;;;;;5111358;28;20106;-60
2023/03/28 11:22:19;;;;;;;4.70;2.10;;;;;;;;;;5113669;28;20047;-61
2023/03/28 11:25:32;;;;;;;6.53;2.30;;;;;;;;;;5094658;28;20502;-61
2023/03/28 11:28:16;;;;;;;6.38;2.15;;;;;;;;;;5091360;28;20119;-61
2023/03/28 11:30:47;;;;;;;5.20;1.83;;;;;;;;;;5102336;28;20059;-61
2023/03/28 11:33:18;;;;;;;4.95;1.90;;;;;;;;;;5109702;28;20038;-61
2023/03/28 11:35:51;;;;;;;5.70;2.20;;;;;;;;;;5112720;28;20039;-61
2023/03/28 11:38:33;;;;;;;5.63;2.65;;;;;;;;;;5105796;28;20400;-60
2023/03/28 11:41:08;;;;;;;5.63;2.05;;;;;;;;;;5093820;28;20031;-61
2023/03/28 11:43:52;;;;;;;6.43;2.20;;;;;;;;;;5093596;28;20357;-61
2023/03/28 11:46:29;;;;;;;8.00;2.50;;;;;;;;;;5107060;28;20031;-61
2023/03/28 11:49:09;;;;;;;8.38;2.28;;;;;;;;;;5096726;28;20047;-60
2023/03/28 11:51:57;;;;;;;3.20;1.83;;;;;;;;;;5093168;28;20040;-58
2023/03/28 11:54:38;;;;;;;6.07;2.33;;;;;;;;;;5100120;28;20043;-60
2023/03/28 11:57:29;;;;;;;5.60;2.28;;;;;;;;;;5113786;28;20487;-61
2023/03/28 12:00:08;;;;;;;;;;;;;;;;;;5103761;28;20051;-61
2023/03/28 12:02:41;;;;;;;3.45;1.92;;;;;;;;;;5113320;28;19911;-61
2023/03/28 12:05:31;;;;;;;4.95;2.10;;;;;;;;;;5092492;28;20375;-62
2023/03/28 12:08:26;;;;;;;4.78;1.90;;;;;;;;;;5092203;28;20439;-62
2023/03/28 12:10:57;;;;;;;5.10;1.83;;;;;;;;;;5058427;28;20098;-60
2023/03/28 12:13:47;;;;;;;6.47;2.20;;;;;;;;;;5092440;28;20032;-60
2023/03/28 12:16:16;;;;;;;6.00;2.00;;;;;;;;;;5093402;28;20031;-60
2023/03/28 12:18:51;;;;;;;5.93;2.03;;;;;;;;;;5113170;28;20047;-60
2023/03/28 12:21:40;;;;;;;6.88;2.10;;;;;;;;;;5111876;28;20427;-60
2023/03/28 12:24:14;;;;;;;7.85;2.13;;;;;;;;;;5107555;28;20036;-62
2023/03/28 12:27:08;;;;;;;2.97;1.80;;;;;;;;;;5093108;28;20032;-60
2023/03/28 12:29:36;;;;;;;4.93;1.92;;;;;;;;;;5100904;28;20101;-60
2023/03/28 12:32:40;;;;;;;4.53;1.90;;;;;;;;;;5111685;28;20468;-61
2023/03/28 12:35:21;;;;;;;3.67;1.75;;;;;;;;;;5102634;28;20032;-61
2023/03/28 12:37:56;;;;;;;6.07;1.80;;;;;;;;;;5108585;28;20088;-60
2023/03/28 12:40:49;;;;;;;7.68;2.38;;;;;;;;;;5102507;28;20031;-60
2023/03/28 12:43:19;;;;;;;5.47;1.70;;;;;;;;;;5096253;28;20080;-61
2023/03/28 12:45:51;;;;;;;3.50;1.70;;;;;;;;;;5108874;28;20080;-60
2023/03/28 12:48:40;;;;;;;5.50;1.92;;;;;;;;;;5091751;28;20357;-60
2023/03/28 12:51:10;;;;;;;5.97;1.80;;;;;;;;;;5092072;28;20046;-62
2023/03/28 12:53:58;;;;;;;6.50;1.83;;;;;;;;;;5096277;28;20032;-61
2023/03/28 12:56:25;;;;;;;6.53;1.70;;;;;;;;;;5094653;28;20035;-60
2023/03/28 12:58:52;;;;;;;3.88;1.60;;;;;;;;;;5101309;28;20032;-61
2023/03/28 13:01:40;;;;;;;6.65;1.80;;;;;;;;;;5104617;28;20098;-61
2023/03/28 13:04:35;;;;;;;2.58;1.15;;;;;;;;;;5112485;28;20482;-62
2023/03/28 13:07:13;;;;;;;5.47;1.50;;;;;;;;;;5089401;28;20084;-61
2023/03/28 13:10:00;;;;;;;2.83;1.30;;;;;;;;;;5092084;28;20062;-61
2023/03/28 13:12:34;;;;;;;3.17;1.27;;;;;;;;;;5105234;28;20456;-61
2023/03/28 13:15:27;;;;;;;4.32;1.42;;;;;;;;;;5108005;28;20040;-60
2023/03/28 13:18:20;;;;;;;6.13;1.52;;;;;;;;;;5092280;28;20074;-63
2023/03/28 13:20:50;;;;;;;2.88;1.45;;;;;;;;;;5096451;28;20491;-61
2023/03/28 13:23:18;;;;;;;5.78;1.50;;;;;;;;;;5090840;28;20111;-63
2023/03/28 13:25:53;;;;;;;4.40;1.80;;;;;;;;;;5091997;28;20053;-61
2023/03/28 13:28:36;;;;;;;2.97;1.63;;;;;;;;;;5090506;28;20028;-60
2023/03/28 13:31:06;;;;;;;4.32;1.77;;;;;;;;;;5091722;28;20515;-61
2023/03/28 13:33:33;;;;;;;4.47;1.60;;;;;;;;;;5091084;28;20039;-60
2023/03/28 13:35:59;;;;;;;5.75;1.70;;;;;;;;;;5097437;28;20070;-59
2023/03/28 13:38:27;;;;;;;4.93;2.13;;;;;;;;;;5090138;28;20842;-61
2023/03/28 13:40:55;;;;;;;4.50;1.83;;;;;;;;;;5092212;28;20024;-61
2023/03/28 13:43:57;;;;;;;4.90;2.00;;;;;;;;;;5090748;28;20498;-61
2023/03/28 13:46:41;;;;;;;5.85;2.30;;;;;;;;;;5091023;28;20047;-61
2023/03/28 13:49:16;;;;;;;6.60;1.58;;;;;;;;;;5090634;28;20042;-61
2023/03/28 13:51:53;;;;;;;4.20;1.73;;;;;;;;;;5094566;28;20078;-60
2023/03/28 13:54:19;;;;;;;3.85;1.70;;;;;;;;;;5101713;28;20397;-61
2023/03/28 13:56:47;;;;;;;5.47;1.80;;;;;;;;;;5112005;28;20055;-60
2023/03/28 13:59:16;;;;;;;4.43;1.60;;;;;;;;;;5109677;28;20055;-60
2023/03/28 14:01:51;;;;;;;5.10;1.80;;;;;;;;;;5111865;28;20028;-60
2023/03/28 14:04:30;;;;;;;3.55;1.60;;;;;;;;;;5111298;28;20034;-61
2023/03/28 14:06:57;;;;;;;2.88;1.60;;;;;;;;;;5094095;28;20024;-60
2023/03/28 14:09:25;;;;;;;5.25;1.80;;;;;;;;;;5109678;28;20413;-61
2023/03/28 14:11:51;;;;;;;5.93;1.98;;;;;;;;;;5112027;28;20031;-61
2023/03/28 14:14:34;;;;;;;3.47;1.73;;;;;;;;;;5111172;28;20076;-61
2023/03/28 14:17:03;;;;;;;4.13;2.20;;;;;;;;;;5112205;28;20038;-61
2023/03/28 14:19:53;;;;;;;4.93;1.80;;;;;;;;;;5109851;28;20023;-62
2023/03/28 14:22:23;;;;;;;5.55;1.90;;;;;;;;;;5098698;28;20493;-61
2023/03/28 14:24:50;;;;;;;7.45;1.90;;;;;;;;;;5111884;28;20498;-61
2023/03/28 14:27:40;;;;;;;4.60;1.80;;;;;;;;;;5111081;28;20023;-60
2023/03/28 14:30:27;;;;;;;4.13;1.90;;;;;;;;;;5101028;28;20111;-61
2023/03/28 14:33:05;;;;;;;3.97;1.90;;;;;;;;;;5108887;28;20054;-61
2023/03/28 14:35:33;;;;;;;5.88;1.90;;;;;;;;;;5109011;28;20024;-61
2023/03/28 14:38:01;;;;;;;5.25;1.70;;;;;;;;;;5090729;28;20094;-61
2023/03/28 14:40:32;;;;;;;4.63;1.95;;;;;;;;;;5106843;28;20035;-61
2023/03/28 14:43:01;;;;;;;2.78;1.50;;;;;;;;;;5115667;28;20035;-61
2023/03/28 14:45:28;;;;;;;6.43;2.20;;;;;;;;;;5094519;28;20035;-61
2023/03/28 14:47:55;;;;;;;6.45;1.52;;;;;;;;;;5094736;28;20061;-62
2023/03/28 14:50:22;;;;;;;6.85;1.98;;;;;;;;;;5109219;28;20032;-59
2023/03/28 14:52:47;;;;;;;4.22;1.90;;;;;;;;;;5095394;28;20048;-60
2023/03/28 14:55:22;;;;;;;4.90;2.10;;;;;;;;;;5101757;28;20034;-59
2023/03/28 14:57:52;;;;;;;4.28;1.80;;;;;;;;;;5095240;28;20032;-60
2023/03/28 15:00:23;;;;;;;3.55;1.50;;;;;;;;;;5108272;28;20438;-59
2023/03/28 15:02:50;;;;;;;3.53;2.28;;;;;;;;;;5114850;28;20034;-59
2023/03/28 15:05:18;;;;;;;4.15;1.67;;;;;;;;;;5113457;28;20063;-59
2023/03/28 15:07:51;;;;;;;3.45;1.88;;;;;;;;;;5114048;28;20097;-60
2023/03/28 15:10:19;;;;;;;3.15;1.70;;;;;;;;;;5100730;28;20036;-60
2023/03/28 15:13:27;;;;;;;3.35;1.80;;;;;;;;;;5094684;28;20031;-60
2023/03/28 15:15:55;;;;;;;3.47;1.92;;;;;;;;;;5089032;28;20036;-61
2023/03/28 15:18:27;;;;;;;5.38;2.00;;;;;;;;;;5092951;28;20067;-60
2023/03/28 15:20:59;;;;;;;4.20;2.20;;;;;;;;;;5094703;28;20081;-60
2023/03/28 15:23:39;;;;;;;5.65;2.40;;;;;;;;;;5099851;28;20368;-61
2023/03/28 15:26:11;;;;;;;6.15;2.17;;;;;;;;;;5100809;28;20080;-60
2023/03/28 15:28:38;;;;;;;5.28;2.00;;;;;;;;;;5111336;27;20032;-60
2023/03/28 15:31:04;;;;;;;5.35;2.03;;;;;;;;;;5094042;28;20119;-61
2023/03/28 15:33:33;;;;;;;4.47;2.10;;;;;;;;;;5092550;28;20115;-61
2023/03/28 15:36:07;;;;;;;4.47;2.25;;;;;;;;;;5093838;28;20391;-60
2023/03/28 15:38:37;;;;;;;5.28;2.28;;;;;;;;;;5091863;28;20059;-60
2023/03/28 15:41:26;;;;;;;4.70;2.00;;;;;;;;;;5106904;28;20032;-60
2023/03/28 15:43:58;;;;;;;6.78;2.30;;;;;;;;;;5113588;28;20038;-59
2023/03/28 15:46:31;;;;;;;6.80;2.20;;;;;;;;;;5111597;28;20445;-60
2023/03/28 15:48:59;;;;;;;4.60;1.83;;;;;;;;;;5099342;28;20051;-61
2023/03/28 15:51:25;;;;;;;5.07;2.13;;;;;;;;;;5092613;28;20060;-61
2023/03/28 15:53:51;;;;;;;6.03;2.22;;;;;;;;;;5093883;28;20052;-61
2023/03/28 15:56:32;;;;;;;3.78;1.98;;;;;;;;;;5096630;28;20058;-63
2023/03/28 15:59:02;;;;;;;7.18;2.28;;;;;;;;;;5100212;28;20031;-62
2023/03/28 16:01:30;;;;;;;8.60;2.20;;;;;;;;;;5113594;28;20023;-60
2023/03/28 16:04:14;;;;;;;5.80;2.03;;;;;;;;;;5095755;28;20028;-59
2023/03/28 16:06:43;;;;;;;5.07;2.20;;;;;;;;;;5103501;28;20528;-61
2023/03/28 16:09:18;;;;;;;4.75;1.90;;;;;;;;;;5111313;28;20019;-60
2023/03/28 16:11:45;;;;;;;6.95;2.35;;;;;;;;;;5105965;27;20039;-60
2023/03/28 16:14:18;;;;;;;4.55;2.00;;;;;;;;;;5109647;28;20027;-60
2023/03/28 16:16:44;;;;;;;7.53;2.20;;;;;;;;;;5110872;28;20052;-61
2023/03/28 16:19:24;;;;;;;11.23;3.25;;;;;;;;;;5097416;28;20031;-62
2023/03/28 16:21:50;;;;;;;5.95;2.10;;;;;;;;;;5093080;28;20036;-61
2023/03/28 16:24:15;;;;;;;6.57;2.67;;;;;;;;;;5111783;28;20081;-61
2023/03/28 16:26:41;;;;;;;7.43;3.00;;;;;;;;;;5106513;28;20127;-60
2023/03/28 16:29:07;;;;;;;5.45;2.50;;;;;;;;;;5092428;28;20028;-60
2023/03/28 16:31:32;;;;;;;3.97;2.20;;;;;;;;;;5098275;28;20039;-60
2023/03/28 16:33:59;;;;;;;5.57;2.40;;;;;;;;;;5109607;28;20042;-61
2023/03/28 16:36:24;;;;;;;6.13;1.98;;;;;;;;;;5111270;28;20080;-61
2023/03/28 16:38:50;;;;;;;5.07;2.30;;;;;;;;;;5113473;28;20036;-61
2023/03/28 16:41:15;;;;;;;5.95;2.50;;;;;;;;;;5102554;28;20036;-60
2023/03/28 16:43:40;;;;;;;7.40;3.30;;;;;;;;;;5092217;28;20072;-61
2023/03/28 16:46:06;;;;;;;7.45;3.03;;;;;;;;;;5096543;28;20024;-61